Time;durP1;ratioP1;P1;durP2;ratioP2;P2;SDS_P1;SDS_P2;PMS_P1;PMS_P2;Temp;Humidity;BMP_temperature;BMP_pressure;BME280_temperature;BME280_humidity;BME280_pressure;Samples;Min_cycle;Max_cycle;Signal;HPM_P1;HPM_P2
2022/10/11 07:08:12;;;;;;;20.80;14.28;;;;;;;10.11;100.00;99319.23;2260850;79;22835;-87
2022/10/11 07:11:13;;;;;;;20.35;16.70;;;;;;;10.20;100.00;99326.11;2227515;80;21016;-86
2022/10/11 07:14:14;;;;;;;22.25;14.60;;;;;;;10.34;100.00;99315.53;2227366;80;21502;-85
2022/10/11 07:17:14;;;;;;;15.48;12.18;;;;;;;10.53;100.00;99327.80;2227023;80;21031;-87
2022/10/11 07:20:15;;;;;;;16.57;11.85;;;;;;;10.70;100.00;99326.49;2227870;80;21036;-86
2022/10/11 07:23:16;;;;;;;16.87;12.35;;;;;;;10.88;100.00;99328.90;2228170;80;20977;-87
2022/10/11 07:26:20;;;;;;;16.12;11.83;;;;;;;11.05;100.00;99337.05;2228386;80;21039;-85
2022/10/11 07:29:20;;;;;;;17.32;11.18;;;;;;;11.23;100.00;99340.78;2229225;80;21100;-86
2022/10/11 07:32:20;;;;;;;13.28;10.85;;;;;;;11.43;100.00;99339.42;2229829;80;21080;-90
2022/10/11 07:35:21;;;;;;;12.70;9.90;;;;;;;11.65;100.00;99337.84;2227971;80;21014;-88
2022/10/11 07:38:22;;;;;;;21.00;10.70;;;;;;;11.88;100.00;99343.16;2227196;80;21491;-88
2022/10/11 07:41:23;;;;;;;19.35;11.50;;;;;;;12.09;100.00;99349.95;2227118;80;21526;-89
2022/10/11 07:44:23;;;;;;;11.60;10.23;;;;;;;12.30;100.00;99353.24;2227163;80;21004;-90
2022/10/11 07:47:24;;;;;;;17.07;10.75;;;;;;;12.51;100.00;99353.91;2227135;80;21016;-88
2022/10/11 07:50:25;;;;;;;14.65;10.30;;;;;;;12.74;100.00;99353.39;2227316;80;21573;-87
2022/10/11 07:53:26;;;;;;;12.47;10.00;;;;;;;12.96;100.00;99356.14;2227295;80;21016;-87
2022/10/11 07:56:26;;;;;;;14.00;11.05;;;;;;;13.18;100.00;99357.91;2227222;80;21238;-88
2022/10/11 07:59:27;;;;;;;14.45;9.03;;;;;;;13.35;100.00;99358.09;2227253;80;21004;-88
2022/10/11 08:02:28;;;;;;;13.68;10.38;;;;;;;13.55;100.00;99356.21;2227118;80;20969;-89
2022/10/11 08:05:28;;;;;;;13.62;9.65;;;;;;;13.78;100.00;99367.42;2226902;80;21067;-89
2022/10/11 08:08:30;;;;;;;13.22;10.08;;;;;;;13.94;100.00;99365.08;2210481;81;20982;-88
2022/10/11 08:11:31;;;;;;;12.95;9.70;;;;;;;14.01;100.00;99365.98;2210862;81;21116;-87
2022/10/11 08:14:31;;;;;;;12.82;8.88;;;;;;;14.10;100.00;99368.00;2210057;81;20962;-87
2022/10/11 08:17:32;;;;;;;9.98;8.93;;;;;;;14.20;100.00;99379.86;2210016;81;21040;-87
2022/10/11 08:20:33;;;;;;;11.75;9.45;;;;;;;14.28;100.00;99393.42;2209339;80;21005;-88
2022/10/11 08:23:34;;;;;;;14.18;10.63;;;;;;;14.32;100.00;99389.39;2209663;81;20990;-85
2022/10/11 08:26:35;;;;;;;13.93;9.98;;;;;;;14.36;100.00;99391.17;2210558;80;21025;-87
2022/10/11 08:29:35;;;;;;;13.35;9.78;;;;;;;14.43;100.00;99395.98;2210015;81;20993;-87
2022/10/11 08:32:36;;;;;;;13.00;9.15;;;;;;;14.49;100.00;99393.95;2212363;81;20962;-85
2022/10/11 08:35:37;;;;;;;11.22;8.95;;;;;;;14.61;100.00;99405.61;2211758;81;20974;-87
2022/10/11 08:38:38;;;;;;;12.78;9.18;;;;;;;14.68;100.00;99412.27;2209559;81;21461;-85
2022/10/11 08:41:38;;;;;;;16.82;10.15;;;;;;;14.70;100.00;99416.34;2210113;81;21000;-88
2022/10/11 08:44:39;;;;;;;13.93;10.98;;;;;;;14.66;100.00;99424.33;2209588;81;21024;-86
2022/10/11 08:47:40;;;;;;;13.30;11.95;;;;;;;14.58;100.00;99420.50;2209347;81;21013;-87
2022/10/11 08:50:41;;;;;;;12.78;11.12;;;;;;;14.53;100.00;99422.05;2210028;81;21045;-87
2022/10/11 08:53:41;;;;;;;20.97;12.60;;;;;;;14.46;100.00;99423.32;2187295;81;20970;-87
2022/10/11 08:56:42;;;;;;;18.40;11.95;;;;;;;14.48;100.00;99429.22;2210642;81;21447;-87
2022/10/11 08:59:43;;;;;;;15.15;12.20;;;;;;;14.48;100.00;99430.53;2210056;81;20993;-87
2022/10/11 09:02:43;;;;;;;17.17;12.50;;;;;;;14.50;100.00;99442.51;2209261;81;21005;-87
2022/10/11 09:05:44;;;;;;;14.05;12.65;;;;;;;14.45;100.00;99438.82;2209293;80;20970;-88
2022/10/11 09:08:45;;;;;;;17.98;13.00;;;;;;;14.56;100.00;99446.73;2219637;80;21080;-90
2022/10/11 09:11:46;;;;;;;14.73;11.95;;;;;;;14.62;100.00;99449.41;2219478;80;21453;-90
2022/10/11 09:14:47;;;;;;;17.42;13.15;;;;;;;14.62;100.00;99461.27;2219701;80;21500;-86
2022/10/11 09:17:47;;;;;;;19.95;14.63;;;;;;;14.57;100.00;99461.03;2219463;80;20985;-88
2022/10/11 09:20:48;;;;;;;18.27;14.35;;;;;;;14.59;100.00;99459.52;2219493;80;21009;-86
2022/10/11 09:23:49;;;;;;;16.93;13.93;;;;;;;14.59;100.00;99468.23;2219588;80;21040;-86
2022/10/11 09:26:49;;;;;;;22.05;15.10;;;;;;;14.62;100.00;99465.22;2219540;80;21017;-86
2022/10/11 09:29:53;;;;;;;18.87;15.15;;;;;;;14.64;100.00;99469.02;2219590;80;21990;-86
2022/10/11 09:32:53;;;;;;;20.77;13.62;;;;;;;14.57;100.00;99478.16;2220056;80;21548;-85
2022/10/11 09:35:54;;;;;;;19.27;15.05;;;;;;;14.44;100.00;99476.14;2222301;80;21021;-84
2022/10/11 09:38:54;;;;;;;16.05;13.32;;;;;;;14.27;100.00;99476.08;2220978;80;21049;-86
2022/10/11 09:41:55;;;;;;;13.50;11.45;;;;;;;14.22;100.00;99481.88;2219580;80;21509;-86
2022/10/11 09:44:58;;;;;;;18.17;11.95;;;;;;;14.16;100.00;99483.11;2219523;80;20966;-87
2022/10/11 09:47:59;;;;;;;15.28;12.50;;;;;;;14.13;100.00;99475.59;2219363;80;21100;-92
2022/10/11 09:50:59;;;;;;;17.15;12.45;;;;;;;14.00;100.00;99472.80;2219519;80;21020;-87
2022/10/11 09:54:00;;;;;;;17.40;12.30;;;;;;;14.04;100.00;99477.50;2219748;80;21425;-88
2022/10/11 09:57:01;;;;;;;17.25;11.95;;;;;;;14.05;100.00;99485.72;2219548;80;21020;-86
2022/10/11 10:00:02;;;;;;;17.20;12.03;;;;;;;14.00;100.00;99492.55;2219427;80;21017;-87
2022/10/11 10:03:03;;;;;;;14.55;11.12;;;;;;;13.97;100.00;99492.39;2219623;80;21180;-88
2022/10/11 10:06:04;;;;;;;16.45;11.35;;;;;;;13.92;100.00;99497.41;2218958;80;20989;-87
2022/10/11 10:09:04;;;;;;;16.12;11.33;;;;;;;13.83;100.00;99498.48;2209455;81;21638;-87
2022/10/11 10:12:05;;;;;;;16.60;13.22;;;;;;;13.82;100.00;99506.07;2209220;81;21020;-86
2022/10/11 10:15:06;;;;;;;20.37;12.05;;;;;;;13.87;100.00;99507.14;2209340;81;21001;-87
2022/10/11 10:18:09;;;;;;;17.23;12.37;;;;;;;13.92;100.00;99514.02;2210276;81;20954;-86
2022/10/11 10:21:09;;;;;;;21.55;13.15;;;;;;;13.94;100.00;99510.69;2209910;81;21080;-86
2022/10/11 10:24:10;;;;;;;14.30;12.73;;;;;;;13.89;100.00;99509.59;2209165;81;21044;-85
2022/10/11 10:27:11;;;;;;;19.12;13.45;;;;;;;13.79;100.00;99516.94;2209161;81;21072;-86
2022/10/11 10:30:12;;;;;;;19.82;13.88;;;;;;;13.76;100.00;99515.99;2209468;81;21069;-86
2022/10/11 10:33:15;;;;;;;16.27;12.37;;;;;;;13.72;100.00;99518.69;2209386;81;20997;-85
2022/10/11 10:36:16;;;;;;;14.18;12.68;;;;;;;13.62;100.00;99518.45;2209945;81;21009;-83
2022/10/11 10:39:16;;;;;;;16.10;11.25;;;;;;;13.56;100.00;99520.97;2212153;81;21013;-83
2022/10/11 10:42:17;;;;;;;15.70;11.85;;;;;;;13.49;100.00;99534.01;2211834;81;21041;-85
2022/10/11 10:45:18;;;;;;;15.20;13.22;;;;;;;13.44;100.00;99522.38;2210245;81;20970;-88
2022/10/11 10:48:18;;;;;;;17.75;13.58;;;;;;;13.45;100.00;99530.61;2209792;81;21005;-88
2022/10/11 10:51:19;;;;;;;15.53;12.82;;;;;;;13.50;100.00;99533.51;2209458;81;21504;-89
2022/10/11 10:54:20;;;;;;;14.05;10.35;;;;;;;13.63;100.00;99535.05;2209316;81;20970;-89
2022/10/11 10:57:21;;;;;;;14.95;11.53;;;;;;;13.72;100.00;99538.42;2209737;81;21048;-88
2022/10/11 11:00:21;;;;;;;11.80;10.00;;;;;;;13.85;100.00;99535.47;2210018;81;20982;-90
2022/10/11 11:03:22;;;;;;;13.55;9.93;;;;;;;14.04;100.00;99538.06;2209802;81;21048;-85
2022/10/11 11:06:23;;;;;;;12.78;9.68;;;;;;;14.24;100.00;99535.69;2209434;81;21080;-88
2022/10/11 11:09:24;;;;;;;13.48;9.13;;;;;;;14.34;100.00;99537.53;2209474;81;21061;-86
2022/10/11 11:12:25;;;;;;;12.18;9.70;;;;;;;14.40;100.00;99528.91;2209592;81;21009;-88
2022/10/11 11:15:25;;;;;;;9.73;8.83;;;;;;;14.47;100.00;99535.62;2209206;81;20975;-88
2022/10/11 11:18:27;;;;;;;9.30;8.40;;;;;;;14.45;100.00;99532.36;2209393;80;20939;-87
2022/10/11 11:21:28;;;;;;;8.00;7.20;;;;;;;14.43;100.00;99529.03;2209219;81;21078;-87
2022/10/11 11:24:28;;;;;;;16.15;8.65;;;;;;;14.51;100.00;99525.83;2209286;81;21052;-88
2022/10/11 11:27:29;;;;;;;10.75;7.42;;;;;;;14.66;100.00;99532.39;2209367;81;21005;-88
2022/10/11 11:30:30;;;;;;;10.28;7.17;;;;;;;14.68;100.00;99526.42;2210951;81;21493;-88
2022/10/11 11:33:31;;;;;;;8.60;6.83;;;;;;;14.63;100.00;99524.86;2209869;81;21036;-88
2022/10/11 11:36:32;;;;;;;9.28;7.35;;;;;;;14.68;100.00;99530.38;2210007;81;20958;-87
2022/10/11 11:39:33;;;;;;;7.15;6.33;;;;;;;14.67;100.00;99534.52;2210439;81;21005;-86
2022/10/11 11:42:34;;;;;;;10.48;6.08;;;;;;;14.56;100.00;99528.42;2211771;81;20977;-85
2022/10/11 11:45:35;;;;;;;7.30;5.40;;;;;;;14.48;100.00;99524.07;2211680;81;21553;-85
2022/10/11 11:48:35;;;;;;;5.28;4.70;;;;;;;14.54;100.00;99521.17;2210559;81;20989;-87
2022/10/11 11:51:36;;;;;;;6.25;4.83;;;;;;;14.63;100.00;99527.97;2210457;81;20997;-89
2022/10/11 11:54:37;;;;;;;9.93;4.83;;;;;;;14.66;100.00;99525.80;2209935;81;21528;-87
2022/10/11 11:57:38;;;;;;;5.65;5.10;;;;;;;14.71;100.00;99525.23;2210222;81;21000;-88
2022/10/11 12:00:38;;;;;;;7.28;5.33;;;;;;;14.63;100.00;99526.66;2209905;81;21005;-89
2022/10/11 12:03:39;;;;;;;7.45;4.37;;;;;;;14.60;100.00;99530.48;2209979;81;21623;-88
2022/10/11 12:06:40;;;;;;;6.03;4.25;;;;;;;14.60;100.00;99517.31;2210798;80;20973;-84
2022/10/11 12:09:41;;;;;;;9.05;4.78;;;;;;;14.63;100.00;99516.95;2220509;80;21005;-89
2022/10/11 12:12:42;;;;;;;6.40;4.97;;;;;;;14.73;100.00;99512.70;2219733;80;20949;-88
2022/10/11 12:15:42;;;;;;;6.58;4.62;;;;;;;14.84;100.00;99516.16;2219593;80;21088;-89
2022/10/11 12:18:43;;;;;;;4.50;4.20;;;;;;;14.95;100.00;99516.97;2219742;80;21476;-89
2022/10/11 12:21:44;;;;;;;5.05;4.40;;;;;;;14.94;100.00;99514.02;2219867;80;20985;-89
2022/10/11 12:24:45;;;;;;;4.65;4.28;;;;;;;14.94;100.00;99525.08;2220977;80;20973;-85
2022/10/11 12:27:45;;;;;;;9.90;4.80;;;;;;;14.87;100.00;99530.77;2220970;80;20985;-91
2022/10/11 12:30:46;;;;;;;6.03;4.22;;;;;;;14.83;100.00;99527.71;2219728;80;20993;-86
2022/10/11 12:33:47;;;;;;;5.28;4.67;;;;;;;14.72;100.00;99525.06;2220190;80;20993;-87
2022/10/11 12:36:48;;;;;;;6.90;4.62;;;;;;;14.67;100.00;99519.52;2220685;80;20938;-85
2022/10/11 12:39:49;;;;;;;8.73;4.87;;;;;;;14.65;100.00;99525.98;2222525;80;21279;-85
2022/10/11 12:42:50;;;;;;;6.33;4.47;;;;;;;14.56;100.00;99527.92;2222358;80;21040;-84
2022/10/11 12:45:51;;;;;;;6.53;4.92;;;;;;;14.49;100.00;99525.70;2222271;80;21076;-85
2022/10/11 12:48:51;;;;;;;8.35;5.30;;;;;;;14.34;100.00;99532.77;2222012;80;20973;-87
2022/10/11 12:51:52;;;;;;;4.65;4.20;;;;;;;14.20;100.00;99535.25;2220327;80;21001;-88
2022/10/11 12:54:53;;;;;;;8.55;5.50;;;;;;;14.10;100.00;99529.45;2220213;80;21024;-88
2022/10/11 12:57:54;;;;;;;8.85;4.67;;;;;;;14.03;100.00;99535.62;2189766;80;20977;-87
2022/10/11 13:00:57;;;;;;;5.58;5.08;;;;;;;13.95;100.00;99530.75;2220272;80;21092;-89
2022/10/11 13:03:58;;;;;;;6.28;3.85;;;;;;;13.87;100.00;99537.41;2219991;80;20966;-89
2022/10/11 13:07:01;;;;;;;9.13;5.42;;;;;;;13.84;100.00;99535.16;2219986;80;21005;-87
2022/10/11 13:10:02;;;;;;;5.90;5.30;;;;;;;13.82;100.00;99532.39;2220395;80;21033;-90
2022/10/11 13:13:03;;;;;;;9.08;5.33;;;;;;;13.80;100.00;99533.05;2220119;80;21005;-90
2022/10/11 13:16:04;;;;;;;6.42;5.47;;;;;;;13.75;100.00;99543.31;2220202;80;21039;-90
2022/10/11 13:19:05;;;;;;;4.95;4.45;;;;;;;13.68;100.00;99540.58;2220450;80;21040;-90
2022/10/11 13:22:06;;;;;;;9.53;6.17;;;;;;;13.64;100.00;99544.08;2220633;80;21556;-90
2022/10/11 13:25:06;;;;;;;5.10;4.60;;;;;;;13.62;100.00;99546.08;2220612;80;20989;-95
2022/10/11 13:28:09;;;;;;;6.80;5.33;;;;;;;13.56;100.00;99542.02;2104572;84;21078;-88
2022/10/11 13:31:10;;;;;;;6.67;4.95;;;;;;;13.53;100.00;99544.52;2104313;85;21026;-92
2022/10/11 13:34:11;;;;;;;7.60;4.95;;;;;;;13.52;100.00;99544.66;2104361;85;21180;-89
2022/10/11 13:37:11;;;;;;;8.68;4.70;;;;;;;13.49;100.00;99543.72;2104168;85;21019;-90
2022/10/11 13:40:12;;;;;;;5.45;4.03;;;;;;;13.46;100.00;99546.21;2104234;85;21026;-87
2022/10/11 13:43:14;;;;;;;6.78;3.95;;;;;;;13.45;100.00;99539.32;2104623;85;21030;-89
2022/10/11 13:46:18;;;;;;;10.32;4.90;;;;;;;13.44;100.00;99544.27;2105961;85;21079;-90
2022/10/11 13:49:17;;;;;;;5.95;4.47;;;;;;;13.45;100.00;99547.21;2107243;85;20999;-88
2022/10/11 13:52:21;;;;;;;8.45;5.08;;;;;;;13.45;100.00;99545.08;2106059;85;21082;-89
2022/10/11 13:55:21;;;;;;;11.48;5.60;;;;;;;13.42;100.00;99547.55;2104968;85;21018;-87
2022/10/11 13:58:21;;;;;;;4.80;4.33;;;;;;;13.39;100.00;99549.23;2105098;85;21062;-90
2022/10/11 14:01:22;;;;;;;4.70;3.47;;;;;;;13.34;100.00;99555.50;2106006;85;20995;-88
2022/10/11 14:04:23;;;;;;;6.70;3.92;;;;;;;13.28;100.00;99558.36;2104368;85;21042;-90
2022/10/11 14:07:24;;;;;;;7.33;4.10;;;;;;;13.25;100.00;99553.92;2102155;85;21032;-91
2022/10/11 14:10:25;;;;;;;7.33;4.90;;;;;;;13.23;100.00;99563.31;2089269;85;21064;-90
2022/10/11 14:13:26;;;;;;;6.28;4.00;;;;;;;13.22;100.00;99561.68;2089710;85;21488;-88
2022/10/11 14:16:36;;;;;;;7.08;4.55;;;;;;;13.22;100.00;99563.49;2089657;85;21036;-88
2022/10/11 14:19:32;;;;;;;7.15;4.30;;;;;;;13.20;100.00;99560.23;2066894;85;21144;-91
2022/10/11 14:22:33;;;;;;;11.03;4.97;;;;;;;13.19;100.00;99562.05;2090625;85;21528;-89
2022/10/11 14:25:34;;;;;;;6.95;3.58;;;;;;;13.16;100.00;99557.58;2160759;82;21025;-90
2022/10/11 14:28:35;;;;;;;8.53;4.30;;;;;;;13.14;100.00;99561.70;2178268;82;20980;-89
2022/10/11 14:31:36;;;;;;;9.38;4.58;;;;;;;13.10;100.00;99565.69;2178183;82;20992;-90
2022/10/11 14:34:37;;;;;;;5.70;3.67;;;;;;;13.07;100.00;99564.70;2179400;82;21455;-88
2022/10/11 14:37:37;;;;;;;5.33;4.00;;;;;;;13.04;100.00;99568.51;2178389;82;21017;-89
2022/10/11 14:40:38;;;;;;;8.33;3.92;;;;;;;13.01;100.00;99569.37;2178227;82;20996;-93
2022/10/11 14:43:39;;;;;;;5.40;3.98;;;;;;;12.98;100.00;99570.51;2177810;82;21051;-89
2022/10/11 14:46:43;;;;;;;5.35;4.17;;;;;;;12.93;100.00;99571.55;2178670;82;21534;-89
2022/10/11 14:49:44;;;;;;;6.10;4.20;;;;;;;12.88;100.00;99569.92;2181013;82;21036;-88
2022/10/11 14:52:45;;;;;;;7.30;4.05;;;;;;;12.83;100.00;99573.58;2181575;82;21028;-87
2022/10/11 14:55:46;;;;;;;7.70;5.30;;;;;;;12.78;100.00;99577.20;2179802;82;20964;-88
2022/10/11 14:58:46;;;;;;;7.37;5.08;;;;;;;12.73;100.00;99576.42;2149089;82;20962;-89
2022/10/11 15:01:52;;;;;;;7.45;4.47;;;;;;;12.67;100.00;99574.48;2177842;82;21001;-89
2022/10/11 15:04:53;;;;;;;7.17;4.65;;;;;;;12.63;100.00;99572.38;2177662;82;21088;-89
2022/10/11 15:07:53;;;;;;;9.73;4.62;;;;;;;12.54;100.00;99579.48;2175787;80;21034;-88
2022/10/11 15:10:54;;;;;;;9.53;4.22;;;;;;;12.52;100.00;99584.06;2170159;82;21461;-89
2022/10/11 15:13:55;;;;;;;8.10;5.20;;;;;;;12.45;100.00;99589.70;2169822;82;21037;-88
2022/10/11 15:16:56;;;;;;;8.35;4.67;;;;;;;12.41;100.00;99593.62;2170067;82;20950;-89
2022/10/11 15:19:57;;;;;;;11.53;5.03;;;;;;;12.34;100.00;99596.11;2170247;82;21654;-89
2022/10/11 15:22:57;;;;;;;12.53;6.45;;;;;;;12.28;100.00;99595.98;2170193;82;21001;-89
2022/10/11 15:25:58;;;;;;;13.83;6.05;;;;;;;12.19;100.00;99596.01;2170094;82;21033;-89
2022/10/11 15:28:59;;;;;;;12.03;7.67;;;;;;;12.12;100.00;99596.34;2170284;82;21025;-89
2022/10/11 15:32:00;;;;;;;16.95;9.53;;;;;;;12.06;100.00;99602.26;2170321;82;20962;-90
2022/10/11 15:35:00;;;;;;;17.80;8.60;;;;;;;11.97;100.00;99604.57;2170409;82;21009;-89
2022/10/11 15:38:01;;;;;;;24.10;11.70;;;;;;;11.90;100.00;99604.94;2170632;82;21001;-89
2022/10/11 15:41:02;;;;;;;20.90;12.50;;;;;;;11.80;100.00;99603.80;2140924;82;21531;-90
2022/10/11 15:44:03;;;;;;;57.35;24.98;;;;;;;11.75;100.00;99613.11;2170378;82;21064;-90
2022/10/11 15:47:03;;;;;;;30.15;15.85;;;;;;;11.66;100.00;99610.98;2171703;82;21025;-87
2022/10/11 15:50:04;;;;;;;37.67;18.02;;;;;;;11.56;100.00;99617.70;2172822;82;21053;-86
2022/10/11 15:53:05;;;;;;;52.75;25.12;;;;;;;11.45;100.00;99619.84;2174198;82;21025;-85
2022/10/11 15:56:06;;;;;;;44.38;23.40;;;;;;;11.36;100.00;99616.38;2173081;82;20997;-88
2022/10/11 15:59:07;;;;;;;37.40;18.30;;;;;;;11.27;100.00;99621.29;2171172;82;21024;-87
2022/10/11 16:02:07;;;;;;;29.60;16.40;;;;;;;11.20;100.00;99624.22;2172211;82;21021;-89
2022/10/11 16:05:08;;;;;;;23.80;12.63;;;;;;;11.12;100.00;99626.33;2170316;82;20982;-88
2022/10/11 16:08:09;;;;;;;21.62;13.55;;;;;;;11.05;100.00;99628.77;2180882;80;21040;-90
2022/10/11 16:11:10;;;;;;;22.07;14.25;;;;;;;10.97;100.00;99630.08;2191192;80;21084;-89
2022/10/11 16:14:11;;;;;;;22.60;13.70;;;;;;;10.88;100.00;99627.56;2220008;80;21299;-90
2022/10/11 16:17:11;;;;;;;30.68;15.50;;;;;;;10.79;100.00;99640.67;2220268;80;21036;-90
2022/10/11 16:20:12;;;;;;;32.90;16.23;;;;;;;10.72;100.00;99641.45;2220541;80;21006;-89
2022/10/11 16:23:13;;;;;;;26.33;14.63;;;;;;;10.59;100.00;99639.73;2220134;80;21032;-90
2022/10/11 16:26:15;;;;;;;21.10;13.00;;;;;;;10.42;100.00;99647.54;2219928;80;20989;-91
2022/10/11 16:29:16;;;;;;;20.85;12.73;;;;;;;10.30;100.00;99653.17;2220190;80;21021;-90
2022/10/11 16:32:16;;;;;;;21.07;11.15;;;;;;;10.18;100.00;99656.03;2222761;80;21012;-90
2022/10/11 16:35:17;;;;;;;16.60;8.53;;;;;;;10.06;100.00;99661.66;2220873;80;20977;-89
2022/10/11 16:38:18;;;;;;;22.60;12.28;;;;;;;9.97;100.00;99666.03;2220927;80;20972;-87
2022/10/11 16:41:19;;;;;;;18.98;11.35;;;;;;;9.89;100.00;99659.43;2220554;80;20997;-93
2022/10/11 16:44:19;;;;;;;18.05;13.58;;;;;;;9.82;100.00;99664.92;2220575;80;21079;-89
2022/10/11 16:47:20;;;;;;;15.90;11.70;;;;;;;9.72;100.00;99666.81;2220293;80;21002;-89
2022/10/11 16:50:24;;;;;;;17.60;11.70;;;;;;;9.62;100.00;99664.27;2220764;80;21017;-90
2022/10/11 16:53:24;;;;;;;17.90;10.08;;;;;;;9.53;100.00;99663.86;2222951;80;20982;-87
2022/10/11 16:56:24;;;;;;;15.53;11.25;;;;;;;9.46;100.00;99672.78;2224364;80;21036;-90
2022/10/11 16:59:25;;;;;;;22.30;13.85;;;;;;;9.39;100.00;99673.86;2222121;80;21032;-90
2022/10/11 17:02:26;;;;;;;23.83;11.97;;;;;;;9.35;100.00;99669.91;2222042;80;20969;-86
2022/10/11 17:05:26;;;;;;;25.17;12.07;;;;;;;9.30;100.00;99672.62;2221204;80;21005;-89
2022/10/11 17:08:27;;;;;;;46.33;20.32;;;;;;;9.25;100.00;99671.77;2217992;80;21027;-87
2022/10/11 17:11:28;;;;;;;77.87;31.45;;;;;;;9.21;100.00;99673.50;2194509;80;21034;-88
2022/10/11 17:14:28;;;;;;;63.10;33.78;;;;;;;9.19;100.00;99673.66;2179085;80;21009;-89
2022/10/11 17:17:29;;;;;;;46.20;25.62;;;;;;;9.17;100.00;99676.91;2218138;80;20993;-87
2022/10/11 17:20:30;;;;;;;33.20;19.50;;;;;;;9.15;100.00;99682.77;2218224;80;21133;-89
2022/10/11 17:23:30;;;;;;;45.17;24.15;;;;;;;9.11;100.00;99686.14;2218930;80;21059;-88
2022/10/11 17:26:31;;;;;;;73.37;32.05;;;;;;;9.07;100.00;99691.33;2218275;80;21048;-87
2022/10/11 17:29:32;;;;;;;72.37;30.57;;;;;;;9.00;100.00;99689.45;2188189;80;21128;-88
2022/10/11 17:32:32;;;;;;;58.85;23.38;;;;;;;8.91;100.00;99687.70;2220244;80;21036;-88
2022/10/11 17:35:33;;;;;;;46.75;22.48;;;;;;;8.83;100.00;99693.64;2220272;80;21627;-91
2022/10/11 17:38:34;;;;;;;66.57;25.62;;;;;;;8.76;100.00;99697.30;2220486;80;20974;-88
2022/10/11 17:41:35;;;;;;;56.68;25.25;;;;;;;8.70;100.00;99699.20;2220200;80;21005;-83
2022/10/11 17:44:35;;;;;;;59.08;24.12;;;;;;;8.63;100.00;99695.52;2219957;80;21052;-89
2022/10/11 17:47:36;;;;;;;67.22;26.35;;;;;;;8.60;100.00;99698.42;2219843;80;21009;-88
2022/10/11 17:50:37;;;;;;;61.45;26.75;;;;;;;8.52;100.00;99697.00;2189577;80;20997;-86
2022/10/11 17:53:38;;;;;;;59.33;25.35;;;;;;;8.46;100.00;99700.17;2223210;80;21049;-88
2022/10/11 17:56:38;;;;;;;68.55;26.37;;;;;;;8.38;100.00;99695.66;2223709;80;20969;-86
2022/10/11 17:59:39;;;;;;;58.87;25.60;;;;;;;8.32;100.00;99697.52;2222604;80;21017;-86
2022/10/11 18:02:40;;;;;;;56.58;23.12;;;;;;;8.27;100.00;99707.54;2220269;80;20954;-86
2022/10/11 18:05:41;;;;;;;53.50;22.75;;;;;;;8.23;100.00;99702.27;2220820;80;21113;-86
2022/10/11 18:08:41;;;;;;;47.78;20.97;;;;;;;8.21;100.00;99697.66;2218661;80;20997;-90
2022/10/11 18:11:42;;;;;;;56.18;23.67;;;;;;;8.20;100.00;99707.75;2212334;81;20966;-90
2022/10/11 18:14:43;;;;;;;55.83;25.48;;;;;;;8.15;100.00;99700.84;2212496;81;21465;-86
2022/10/11 18:17:46;;;;;;;61.77;27.07;;;;;;;8.08;100.00;99703.17;2211693;81;20963;-86
2022/10/11 18:20:46;;;;;;;64.67;29.18;;;;;;;7.98;100.00;99703.67;2211870;81;20974;-88
2022/10/11 18:23:47;;;;;;;51.68;22.82;;;;;;;7.83;100.00;99705.05;2211092;81;21005;-93
2022/10/11 18:26:48;;;;;;;54.95;25.72;;;;;;;7.74;100.00;99705.87;2211397;81;20978;-91
2022/10/11 18:29:49;;;;;;;42.17;23.45;;;;;;;7.65;100.00;99700.52;2211050;81;20966;-91
2022/10/11 18:32:52;;;;;;;71.95;38.42;;;;;;;7.60;100.00;99704.51;2210487;81;21028;-91
2022/10/11 18:35:56;;;;;;;63.23;32.95;;;;;;;7.51;100.00;99699.62;2189426;81;21020;-92
2022/10/11 18:39:19;;;;;;;64.32;32.80;;;;;;;7.45;100.00;99706.67;2211611;81;20998;-96
2022/10/11 18:52:24;;;;;;;46.30;25.45;;;;;;;7.29;100.00;99708.97;2048400;87;21072;-91
2022/10/11 18:55:25;;;;;;;29.90;18.92;;;;;;;7.27;100.00;99712.20;2052915;87;21065;-93
2022/10/11 18:58:25;;;;;;;42.85;24.40;;;;;;;7.21;100.00;99711.42;2055157;87;21025;-92
2022/10/11 19:01:26;;;;;;;44.05;25.52;;;;;;;7.15;100.00;99715.41;2055143;83;21065;-89
2022/10/11 19:04:27;;;;;;;54.25;27.07;;;;;;;7.08;100.00;99720.31;2053885;87;21057;-88
2022/10/11 19:07:28;;;;;;;59.60;26.82;;;;;;;7.02;100.00;99714.32;2053609;87;21006;-87
2022/10/11 19:10:29;;;;;;;94.10;38.80;;;;;;;6.96;100.00;99715.34;2053266;87;21025;-88
2022/10/11 19:13:29;;;;;;;70.67;30.48;;;;;;;6.89;100.00;99705.93;2053052;87;21111;-91
2022/10/11 19:16:30;;;;;;;68.00;31.00;;;;;;;6.83;100.00;99711.17;2052356;87;20990;-90
2022/10/11 19:19:31;;;;;;;68.22;30.00;;;;;;;6.80;100.00;99715.83;2053263;87;21017;-89
2022/10/11 19:22:32;;;;;;;55.83;25.37;;;;;;;6.79;100.00;99708.98;2053026;87;20978;-89
2022/10/11 19:25:33;;;;;;;63.20;30.32;;;;;;;6.75;100.00;99712.30;2053341;87;21010;-89
2022/10/11 19:28:34;;;;;;;58.42;27.42;;;;;;;6.70;100.00;99707.98;2052881;87;21038;-88
2022/10/11 19:31:35;;;;;;;53.68;26.48;;;;;;;6.67;100.00;99704.80;2053020;87;21036;-89
2022/10/11 19:34:35;;;;;;;54.23;25.70;;;;;;;6.65;100.00;99713.22;2052633;87;21017;-89
2022/10/11 19:37:36;;;;;;;53.58;29.60;;;;;;;6.56;100.00;99718.25;2053202;87;20988;-88
2022/10/11 19:40:37;;;;;;;54.60;24.02;;;;;;;6.51;100.00;99722.20;2053190;87;21046;-88
2022/10/11 19:43:37;;;;;;;42.67;23.60;;;;;;;6.44;100.00;99727.09;2053099;87;21009;-88
2022/10/11 19:46:38;;;;;;;44.03;23.20;;;;;;;6.38;100.00;99724.17;2053249;87;20982;-88
2022/10/11 19:49:39;;;;;;;50.05;23.55;;;;;;;6.29;100.00;99723.16;2076231;86;21526;-88
2022/10/11 19:52:40;;;;;;;54.90;28.15;;;;;;;6.17;100.00;99725.01;2079407;85;20976;-87
2022/10/11 19:55:41;;;;;;;47.08;25.32;;;;;;;6.12;100.00;99726.33;2079749;86;21074;-87
2022/10/11 19:58:41;;;;;;;46.60;23.70;;;;;;;6.07;100.00;99728.50;2081027;84;20992;-88
2022/10/11 20:01:42;;;;;;;45.60;23.73;;;;;;;6.03;100.00;99728.38;2081404;83;21182;-88
2022/10/11 20:04:43;;;;;;;44.40;25.35;;;;;;;6.02;100.00;99730.63;2079987;86;21017;-88
2022/10/11 20:07:44;;;;;;;41.85;22.67;;;;;;;5.96;100.00;99736.70;2079560;85;21031;-88
2022/10/11 20:10:44;;;;;;;40.15;22.82;;;;;;;5.93;100.00;99734.81;2079447;86;20995;-87
2022/10/11 20:13:45;;;;;;;39.35;23.05;;;;;;;5.89;100.00;99735.99;2079410;86;21068;-87
2022/10/11 20:16:46;;;;;;;39.13;23.40;;;;;;;5.83;100.00;99733.41;2079441;85;21007;-88
2022/10/11 20:19:47;;;;;;;40.05;22.90;;;;;;;5.81;100.00;99737.09;2079761;85;20976;-88
2022/10/11 20:22:47;;;;;;;48.80;24.75;;;;;;;5.76;100.00;99742.67;2079498;86;21531;-88
2022/10/11 20:25:48;;;;;;;46.33;24.80;;;;;;;5.73;100.00;99744.20;2079539;86;21140;-88
2022/10/11 20:28:49;;;;;;;47.17;25.20;;;;;;;5.70;100.00;99737.48;2079539;86;21023;-88
2022/10/11 20:31:49;;;;;;;46.60;26.40;;;;;;;5.69;100.00;99734.53;2079429;86;21024;-88
2022/10/11 20:34:50;;;;;;;43.95;24.60;;;;;;;5.68;100.00;99737.27;2079486;85;20972;-88
2022/10/11 20:37:53;;;;;;;47.88;26.52;;;;;;;5.64;100.00;99740.56;2079562;86;20999;-88
2022/10/11 20:40:53;;;;;;;43.08;25.17;;;;;;;5.59;100.00;99736.23;2067894;86;21539;-88
2022/10/11 20:43:54;;;;;;;49.88;25.62;;;;;;;5.54;100.00;99734.93;2067912;86;20988;-89
2022/10/11 20:46:55;;;;;;;39.23;22.15;;;;;;;5.51;100.00;99741.20;2068024;85;21067;-89
2022/10/11 20:49:56;;;;;;;46.63;24.82;;;;;;;5.46;100.00;99738.13;2068396;86;21044;-89
2022/10/11 20:52:56;;;;;;;54.70;28.17;;;;;;;5.40;100.00;99736.87;2068010;86;21049;-89
2022/10/11 20:55:57;;;;;;;42.65;25.77;;;;;;;5.38;100.00;99743.11;2067953;86;21059;-88
2022/10/11 20:58:58;;;;;;;43.40;24.02;;;;;;;5.37;100.00;99743.58;2068460;86;21016;-87
2022/10/11 21:01:59;;;;;;;43.92;24.43;;;;;;;5.34;100.00;99743.02;2069646;84;21084;-89
2022/10/11 21:05:00;;;;;;;42.30;24.20;;;;;;;5.32;100.00;99743.61;2069517;84;21028;-88
2022/10/11 21:08:00;;;;;;;43.70;24.60;;;;;;;5.26;100.00;99739.72;2068128;86;21067;-89